createdAt,value
2017-10-19T00:00:10.334Z,13.40
2017-10-19T00:01:14.490Z,13.40
2017-10-19T00:02:18.707Z,13.40
2017-10-19T00:03:22.949Z,13.40
2017-10-19T00:04:27.196Z,13.40
2017-10-19T00:05:31.587Z,13.40
2017-10-19T00:06:35.813Z,13.40
2017-10-19T00:07:40.002Z,13.40
2017-10-19T00:08:44.294Z,13.30
2017-10-19T00:09:48.488Z,13.30
2017-10-19T00:10:52.739Z,13.30
2017-10-19T00:11:57.138Z,13.30
2017-10-19T00:13:01.310Z,13.30
2017-10-19T00:14:05.505Z,13.30
2017-10-19T00:15:09.846Z,13.30
2017-10-19T00:16:14.489Z,13.30
2017-10-19T00:17:18.662Z,13.30
2017-10-19T00:18:22.826Z,13.30
2017-10-19T00:19:27.078Z,13.30
2017-10-19T00:20:31.271Z,13.30
2017-10-19T00:21:35.645Z,13.20
2017-10-19T00:22:40.587Z,13.20
2017-10-19T00:23:45.289Z,13.20
2017-10-19T00:24:49.607Z,13.20
2017-10-19T00:25:53.882Z,13.20
2017-10-19T00:26:58.006Z,13.10
2017-10-19T00:28:02.265Z,13.10
2017-10-19T00:29:06.590Z,13.10
2017-10-19T00:30:10.783Z,13.10
2017-10-19T00:31:14.986Z,13.10
2017-10-19T00:32:19.185Z,13.10
2017-10-19T00:33:23.788Z,13.00
2017-10-19T00:34:27.987Z,13.00
2017-10-19T00:35:32.187Z,13.00
2017-10-19T00:36:36.529Z,13.00
2017-10-19T00:37:40.686Z,13.00
2017-10-19T00:38:45.218Z,13.00
2017-10-19T00:39:49.461Z,13.00
2017-10-19T00:40:54.434Z,13.00
2017-10-19T00:41:58.666Z,13.00
2017-10-19T00:43:02.883Z,13.00
2017-10-19T00:44:07.380Z,13.00
2017-10-19T00:45:11.679Z,13.00
2017-10-19T00:46:15.938Z,13.00
2017-10-19T00:48:23.653Z,13.00
2017-10-19T00:49:28.191Z,13.00
2017-10-19T00:50:32.319Z,12.90
2017-10-19T00:51:36.479Z,12.90
2017-10-19T00:52:40.681Z,12.90
2017-10-19T00:53:44.929Z,12.90
2017-10-19T00:54:49.434Z,12.80
2017-10-19T00:55:53.765Z,12.80
2017-10-19T00:56:58.081Z,12.80
2017-10-19T00:58:03.145Z,12.70
2017-10-19T00:59:07.634Z,12.70
2017-10-19T01:00:12.537Z,12.70
2017-10-19T01:01:16.974Z,12.70
2017-10-19T01:02:21.729Z,12.70
2017-10-19T01:03:25.929Z,12.60
2017-10-19T01:04:30.137Z,12.60
2017-10-19T01:05:34.387Z,12.60
2017-10-19T01:06:39.373Z,12.60
2017-10-19T01:07:43.550Z,12.60
2017-10-19T01:08:47.736Z,12.60
2017-10-19T01:09:51.980Z,12.50
2017-10-19T01:10:56.149Z,12.60
2017-10-19T01:12:00.558Z,12.50
2017-10-19T01:13:04.756Z,12.60
2017-10-19T01:14:09.037Z,12.50
2017-10-19T01:15:13.977Z,12.50
2017-10-19T01:16:18.187Z,12.50
2017-10-19T01:17:22.337Z,12.50
2017-10-19T01:18:26.544Z,12.50
2017-10-19T01:19:30.836Z,12.50
2017-10-19T01:20:35.062Z,12.50
2017-10-19T01:21:39.605Z,12.50
2017-10-19T01:22:44.606Z,12.50
2017-10-19T01:23:48.877Z,12.50
2017-10-19T01:24:53.832Z,12.50
2017-10-19T01:25:58.119Z,12.50
2017-10-19T01:27:02.342Z,12.50
2017-10-19T01:28:06.642Z,12.50
2017-10-19T01:29:10.889Z,12.50
2017-10-19T01:30:15.136Z,12.50
2017-10-19T01:31:19.545Z,12.40
2017-10-19T01:32:23.803Z,12.40
2017-10-19T01:33:28.050Z,12.30
2017-10-19T01:34:32.394Z,12.30
2017-10-19T01:35:36.759Z,12.20
2017-10-19T01:36:41.147Z,12.10
2017-10-19T01:37:45.430Z,12.10
2017-10-19T01:38:50.400Z,11.90
2017-10-19T01:39:55.053Z,11.90
2017-10-19T01:40:59.586Z,11.90
2017-10-19T01:42:05.878Z,11.90
2017-10-19T01:43:11.431Z,11.90
2017-10-19T01:44:18.384Z,11.90
2017-10-19T01:45:25.481Z,12.00
2017-10-19T01:46:41.484Z,12.00
2017-10-19T01:47:48.562Z,11.90
2017-10-19T01:48:57.502Z,12.00
2017-10-19T01:50:04.029Z,11.90
2017-10-19T01:51:10.822Z,11.90
2017-10-19T01:52:16.428Z,12.00
2017-10-19T01:53:22.426Z,11.90
2017-10-19T01:54:28.984Z,11.90
2017-10-19T01:55:34.979Z,11.90
2017-10-19T01:56:40.385Z,11.90
2017-10-19T01:57:46.584Z,11.90
2017-10-19T01:58:58.172Z,11.90
2017-10-19T02:00:03.153Z,11.90
2017-10-19T02:01:07.389Z,11.90
2017-10-19T02:02:12.368Z,11.90
2017-10-19T02:03:16.587Z,11.80
2017-10-19T02:04:20.742Z,11.90
2017-10-19T02:05:24.955Z,11.80
2017-10-19T02:06:29.385Z,11.80
2017-10-19T02:07:33.800Z,11.80
2017-10-19T02:08:38.750Z,11.80
2017-10-19T02:09:43.973Z,11.70
2017-10-19T02:10:49.172Z,11.70
2017-10-19T02:11:53.484Z,11.60
2017-10-19T02:12:57.900Z,11.70
2017-10-19T02:14:02.121Z,11.70
2017-10-19T02:15:06.966Z,11.70
2017-10-19T02:16:11.898Z,11.70
2017-10-19T02:17:17.102Z,11.60
2017-10-19T02:18:22.067Z,11.70
2017-10-19T02:19:26.682Z,11.70
2017-10-19T02:20:31.841Z,11.70
2017-10-19T02:21:36.313Z,11.70
2017-10-19T02:22:40.484Z,11.70
2017-10-19T02:23:45.427Z,11.60
2017-10-19T02:24:49.742Z,11.60
2017-10-19T02:25:54.234Z,11.60
2017-10-19T02:26:59.369Z,11.60
2017-10-19T02:28:03.546Z,11.60
2017-10-19T02:29:08.204Z,11.60
2017-10-19T02:30:12.701Z,11.60
2017-10-19T02:31:16.911Z,11.60
2017-10-19T02:32:21.680Z,11.70
2017-10-19T02:33:26.414Z,11.70
2017-10-19T02:34:32.070Z,11.60
2017-10-19T02:35:38.454Z,11.70
2017-10-19T02:36:42.837Z,11.70
2017-10-19T02:37:48.518Z,11.70
2017-10-19T02:38:53.267Z,11.70
2017-10-19T02:39:58.108Z,11.70
2017-10-19T02:41:03.956Z,11.70
2017-10-19T02:42:58.039Z,11.60
2017-10-19T02:44:02.796Z,11.60
2017-10-19T02:45:08.859Z,11.60
2017-10-19T02:46:13.032Z,11.70
2017-10-19T02:47:18.089Z,11.60
2017-10-19T02:48:23.534Z,11.70
2017-10-19T02:49:28.025Z,11.70
2017-10-19T02:50:32.395Z,11.70
2017-10-19T02:51:37.261Z,11.70
2017-10-19T02:52:41.513Z,11.70
2017-10-19T02:53:45.918Z,11.70
2017-10-19T02:54:50.935Z,11.80
2017-10-19T02:55:56.430Z,11.80
2017-10-19T02:57:01.001Z,11.80
2017-10-19T02:58:05.446Z,11.80
2017-10-19T02:59:09.873Z,11.80
2017-10-19T03:00:14.080Z,11.80
2017-10-19T03:01:19.237Z,11.80
2017-10-19T03:02:24.290Z,11.70
2017-10-19T03:03:29.149Z,11.70
2017-10-19T03:04:33.338Z,11.70
2017-10-19T03:05:37.510Z,11.70
2017-10-19T03:06:41.701Z,11.70
2017-10-19T03:07:47.376Z,11.70
2017-10-19T03:08:52.248Z,11.70
2017-10-19T03:09:56.530Z,11.70
2017-10-19T03:11:01.086Z,11.70
2017-10-19T03:12:05.328Z,11.70
2017-10-19T03:13:09.754Z,11.70
2017-10-19T03:14:13.986Z,11.70
2017-10-19T03:15:19.012Z,11.70
2017-10-19T03:16:24.091Z,11.60
2017-10-19T03:17:28.666Z,11.70
2017-10-19T03:18:33.125Z,11.70
2017-10-19T03:19:37.321Z,11.60
2017-10-19T03:20:41.893Z,11.60
2017-10-19T03:21:46.069Z,11.60
2017-10-19T03:22:50.298Z,11.60
2017-10-19T03:23:55.311Z,11.60
2017-10-19T03:25:00.307Z,11.60
2017-10-19T03:26:05.949Z,11.50
2017-10-19T03:27:10.201Z,11.60
2017-10-19T03:28:14.383Z,11.60
2017-10-19T03:29:19.380Z,11.50
2017-10-19T03:30:23.760Z,11.50
2017-10-19T03:31:27.957Z,11.50
2017-10-19T03:32:32.157Z,11.50
2017-10-19T03:33:36.315Z,11.50
2017-10-19T03:34:40.520Z,11.50
2017-10-19T03:35:44.753Z,11.50
2017-10-19T03:36:48.964Z,11.50
2017-10-19T03:37:53.198Z,11.50
2017-10-19T03:38:57.929Z,11.50
2017-10-19T03:40:02.247Z,11.50
2017-10-19T03:41:06.811Z,11.40
2017-10-19T03:42:11.013Z,11.40
2017-10-19T03:43:15.443Z,11.40
2017-10-19T03:44:19.912Z,11.40
2017-10-19T03:45:25.030Z,11.40
2017-10-19T03:46:29.340Z,11.30
2017-10-19T03:47:34.512Z,11.40
2017-10-19T03:48:39.246Z,11.40
2017-10-19T03:49:43.498Z,11.40
2017-10-19T03:50:48.529Z,11.40
2017-10-19T03:51:53.628Z,11.30
2017-10-19T03:52:57.888Z,11.30
2017-10-19T03:54:02.074Z,11.30
2017-10-19T03:55:06.282Z,11.40
2017-10-19T03:56:10.732Z,11.30
2017-10-19T03:57:14.922Z,11.30
2017-10-19T03:58:19.464Z,11.30
2017-10-19T03:59:23.747Z,11.30
2017-10-19T04:00:28.352Z,11.30
2017-10-19T04:01:32.710Z,11.30
2017-10-19T04:02:37.427Z,11.30
2017-10-19T04:03:42.514Z,11.30
2017-10-19T04:04:46.777Z,11.20
2017-10-19T04:05:50.949Z,11.20
2017-10-19T04:06:55.161Z,11.20
2017-10-19T04:08:00.142Z,11.20
2017-10-19T04:09:04.690Z,11.20
2017-10-19T04:10:09.745Z,11.20
2017-10-19T04:11:13.950Z,11.20
2017-10-19T04:12:18.150Z,11.20
2017-10-19T04:13:23.289Z,11.10
2017-10-19T04:14:27.512Z,11.10
2017-10-19T04:15:31.903Z,11.20
2017-10-19T04:16:36.058Z,11.10
2017-10-19T04:17:40.667Z,11.10
2017-10-19T04:18:44.885Z,11.10
2017-10-19T04:19:49.854Z,11.10
2017-10-19T04:20:54.045Z,11.10
2017-10-19T04:21:59.788Z,11.20
2017-10-19T04:23:04.157Z,11.10
2017-10-19T04:24:08.379Z,11.10
2017-10-19T04:25:13.322Z,11.10
2017-10-19T04:26:17.512Z,11.10
2017-10-19T04:27:22.456Z,11.20
2017-10-19T04:28:26.622Z,11.10
2017-10-19T04:29:30.992Z,11.10
2017-10-19T04:30:49.373Z,11.10
2017-10-19T04:31:53.774Z,11.10
2017-10-19T04:32:58.030Z,11.10
2017-10-19T04:34:02.226Z,11.10
2017-10-19T04:35:06.365Z,11.10
2017-10-19T04:36:11.130Z,11.10
2017-10-19T04:37:16.176Z,11.10
2017-10-19T04:38:20.508Z,11.10
2017-10-19T04:39:24.784Z,11.10
2017-10-19T04:40:29.174Z,11.10
2017-10-19T04:41:34.198Z,10.90
2017-10-19T04:42:38.453Z,10.90
2017-10-19T04:43:42.860Z,10.90
2017-10-19T04:44:47.118Z,10.90
2017-10-19T04:45:51.737Z,10.90
2017-10-19T04:46:56.777Z,10.90
2017-10-19T04:48:01.035Z,10.90
2017-10-19T04:49:05.233Z,10.90
2017-10-19T04:50:09.680Z,10.90
2017-10-19T04:51:14.637Z,10.80
2017-10-19T04:52:18.835Z,10.70
2017-10-19T04:53:23.044Z,10.80
2017-10-19T04:54:27.449Z,10.70
2017-10-19T04:55:31.706Z,10.60
2017-10-19T04:56:36.197Z,10.60
2017-10-19T04:57:40.406Z,10.50
2017-10-19T04:58:44.695Z,10.50
2017-10-19T04:59:48.904Z,10.50
2017-10-19T05:00:53.626Z,10.60
2017-10-19T05:01:58.072Z,10.60
2017-10-19T05:03:03.700Z,10.60
2017-10-19T05:04:08.780Z,10.60
2017-10-19T05:05:13.311Z,10.60
2017-10-19T05:06:18.696Z,10.70
2017-10-19T05:07:24.078Z,10.70
2017-10-19T05:08:28.366Z,10.70
2017-10-19T05:09:32.591Z,10.70
2017-10-19T05:10:36.894Z,10.80
2017-10-19T05:11:41.329Z,10.80
2017-10-19T05:12:46.303Z,10.70
2017-10-19T05:13:51.597Z,10.80
2017-10-19T05:14:56.612Z,10.80
2017-10-19T05:16:00.860Z,10.80
2017-10-19T05:17:05.143Z,10.80
2017-10-19T05:18:09.721Z,10.80
2017-10-19T05:19:14.166Z,10.80
2017-10-19T05:20:18.490Z,10.80
2017-10-19T05:21:22.757Z,10.80
2017-10-19T05:22:28.125Z,10.80
2017-10-19T05:23:32.587Z,10.80
2017-10-19T05:24:36.806Z,10.70
2017-10-19T05:25:41.978Z,10.70
2017-10-19T05:26:46.253Z,10.80
2017-10-19T05:27:51.262Z,10.80
2017-10-19T05:28:56.264Z,10.80
2017-10-19T05:30:01.110Z,10.70
2017-10-19T05:31:06.223Z,10.80
2017-10-19T05:32:11.453Z,10.70
2017-10-19T05:33:15.710Z,10.70
2017-10-19T05:34:20.025Z,10.80
2017-10-19T05:35:24.588Z,10.70
2017-10-19T05:36:29.753Z,10.70
2017-10-19T05:37:34.037Z,10.70
2017-10-19T05:38:39.041Z,10.70
2017-10-19T05:39:43.393Z,10.70
2017-10-19T05:40:47.769Z,10.70
2017-10-19T05:41:52.892Z,10.40
2017-10-19T05:42:58.065Z,10.40
2017-10-19T05:44:02.443Z,10.30
2017-10-19T05:45:06.716Z,10.30
2017-10-19T05:46:11.073Z,10.20
2017-10-19T05:47:15.451Z,10.20
2017-10-19T05:48:20.577Z,10.20
2017-10-19T05:49:24.948Z,10.20
2017-10-19T05:50:29.390Z,10.10
2017-10-19T05:51:33.930Z,10.10
2017-10-19T05:52:38.189Z,10.10
2017-10-19T05:53:42.594Z,10.10
2017-10-19T05:54:46.879Z,10.10
2017-10-19T05:55:51.203Z,10.10
2017-10-19T05:56:55.450Z,10.10
2017-10-19T05:57:59.788Z,10.10
2017-10-19T05:59:04.073Z,10.10
2017-10-19T06:00:09.276Z,10.10
2017-10-19T06:01:14.415Z,10.10
2017-10-19T06:02:21.047Z,10.00
2017-10-19T06:03:28.283Z,10.00
2017-10-19T06:04:35.498Z,10.00
2017-10-19T06:05:41.621Z,10.00
2017-10-19T06:06:46.806Z,10.10
2017-10-19T06:07:51.870Z,10.00
2017-10-19T06:08:56.860Z,10.00
2017-10-19T06:10:02.837Z,10.00
2017-10-19T06:11:08.047Z,10.00
2017-10-19T06:12:14.496Z,10.00
2017-10-19T06:13:19.624Z,10.00
2017-10-19T06:14:24.049Z,10.00
2017-10-19T06:15:28.441Z,10.00
2017-10-19T06:16:32.824Z,10.00
2017-10-19T06:17:37.148Z,10.00
2017-10-19T06:18:42.161Z,10.00
2017-10-19T06:19:46.717Z,10.00
2017-10-19T06:20:51.107Z,10.00
2017-10-19T06:21:55.341Z,10.00
2017-10-19T06:22:59.601Z,10.00
2017-10-19T06:24:04.829Z,10.10
2017-10-19T06:25:09.914Z,10.20
2017-10-19T06:26:15.238Z,10.10
2017-10-19T06:27:21.148Z,10.20
2017-10-19T06:28:26.209Z,10.30
2017-10-19T06:29:32.209Z,10.30
2017-10-19T06:30:38.158Z,10.40
2017-10-19T06:31:44.120Z,10.40
2017-10-19T06:32:51.770Z,10.40
2017-10-19T06:33:57.621Z,10.50
2017-10-19T06:35:03.768Z,10.50
2017-10-19T06:36:08.902Z,10.50
2017-10-19T06:37:14.820Z,10.60
2017-10-19T06:38:22.915Z,10.60
2017-10-19T06:39:29.956Z,10.70
2017-10-19T06:40:34.941Z,10.70
2017-10-19T06:41:41.589Z,10.80
2017-10-19T06:42:48.045Z,10.90
2017-10-19T06:43:55.075Z,11.00
2017-10-19T06:45:01.053Z,11.00
2017-10-19T06:46:06.050Z,11.10
2017-10-19T06:47:11.233Z,11.10
2017-10-19T06:48:15.918Z,11.20
2017-10-19T06:49:21.920Z,11.20
2017-10-19T06:50:27.221Z,11.20
2017-10-19T06:51:32.475Z,11.30
2017-10-19T06:52:36.971Z,11.30
2017-10-19T06:53:41.238Z,11.30
2017-10-19T06:56:00.777Z,11.40
2017-10-19T06:57:05.513Z,11.40
2017-10-19T06:58:09.896Z,11.50
2017-10-19T06:59:14.841Z,11.60
2017-10-19T07:00:19.141Z,11.70
2017-10-19T07:01:23.530Z,11.70
2017-10-19T07:02:28.042Z,11.80
2017-10-19T07:03:32.378Z,11.80
2017-10-19T07:04:36.800Z,11.70
2017-10-19T07:05:41.260Z,11.70
2017-10-19T07:06:47.830Z,11.80
2017-10-19T07:07:52.204Z,11.70
2017-10-19T07:08:57.336Z,11.80
2017-10-19T07:10:02.554Z,11.80
2017-10-19T07:11:08.939Z,11.80
2017-10-19T07:12:13.462Z,11.80
2017-10-19T07:13:18.033Z,11.90
2017-10-19T07:14:23.221Z,11.90
2017-10-19T07:15:27.700Z,11.90
2017-10-19T07:16:32.208Z,12.00
2017-10-19T07:17:36.865Z,12.00
2017-10-19T07:18:41.243Z,12.10
2017-10-19T07:19:46.193Z,12.10
2017-10-19T07:20:50.634Z,12.20
2017-10-19T07:21:56.040Z,12.20
2017-10-19T07:23:00.406Z,12.20
2017-10-19T07:24:05.075Z,12.30
2017-10-19T07:25:10.100Z,12.30
2017-10-19T07:26:15.553Z,12.30
2017-10-19T07:27:20.787Z,12.50
2017-10-19T07:28:26.090Z,12.50
2017-10-19T07:29:31.082Z,12.50
2017-10-19T07:30:36.801Z,12.60
2017-10-19T07:31:42.090Z,12.70
2017-10-19T07:32:46.716Z,12.80
2017-10-19T07:33:52.086Z,12.90
2017-10-19T07:34:56.626Z,12.90
2017-10-19T07:36:01.101Z,12.90
2017-10-19T07:37:05.015Z,13.00
2017-10-19T07:38:09.494Z,13.00
2017-10-19T07:39:14.733Z,13.10
2017-10-19T07:40:20.552Z,13.10
2017-10-19T07:41:26.610Z,13.20
2017-10-19T07:42:31.776Z,13.20
2017-10-19T07:43:36.162Z,13.20
2017-10-19T07:44:40.503Z,13.30
2017-10-19T07:45:44.800Z,13.30
2017-10-19T07:47:13.073Z,13.40
2017-10-19T07:48:17.430Z,13.40
2017-10-19T07:49:22.935Z,13.50
2017-10-19T07:50:27.382Z,13.50
2017-10-19T07:51:32.492Z,13.70
2017-10-19T07:52:37.974Z,13.80
2017-10-19T07:53:42.467Z,13.70
2017-10-19T07:54:47.553Z,13.90
2017-10-19T07:55:51.957Z,13.90
2017-10-19T07:56:56.339Z,14.00
2017-10-19T07:58:00.810Z,14.10
2017-10-19T07:59:06.037Z,14.20
2017-10-19T08:00:12.145Z,14.20
2017-10-19T08:01:16.517Z,14.20
2017-10-19T08:02:20.926Z,14.30
2017-10-19T08:03:25.378Z,14.30
2017-10-19T08:04:29.791Z,14.40
2017-10-19T08:05:34.397Z,14.50
2017-10-19T08:06:39.073Z,14.50
2017-10-19T08:07:43.371Z,14.50
2017-10-19T08:08:48.723Z,14.60
2017-10-19T08:09:53.497Z,14.60
2017-10-19T08:10:58.004Z,14.60
2017-10-19T08:12:05.003Z,14.60
2017-10-19T08:13:10.230Z,14.70
2017-10-19T08:14:14.698Z,14.70
2017-10-19T08:15:19.040Z,14.80
2017-10-19T08:16:24.486Z,14.80
2017-10-19T08:17:28.763Z,14.80
2017-10-19T08:18:33.292Z,14.80
2017-10-19T08:19:38.320Z,14.90
2017-10-19T08:20:43.399Z,14.90
2017-10-19T08:21:47.939Z,14.90
2017-10-19T08:22:52.254Z,14.90
2017-10-19T08:23:57.516Z,14.90
2017-10-19T08:25:02.030Z,14.90
2017-10-19T08:26:07.592Z,14.90
2017-10-19T08:27:12.071Z,14.90
2017-10-19T08:28:16.489Z,14.90
2017-10-19T08:29:33.502Z,15.00
2017-10-19T08:30:37.799Z,15.00
2017-10-19T08:31:42.217Z,15.00
2017-10-19T08:32:46.851Z,15.10
2017-10-19T08:33:51.497Z,15.20
2017-10-19T08:34:56.205Z,15.20
2017-10-19T08:36:00.554Z,15.20
2017-10-19T08:37:04.760Z,15.20
2017-10-19T08:38:09.840Z,15.20
2017-10-19T08:39:15.000Z,15.30
2017-10-19T08:40:20.210Z,15.30
2017-10-19T08:41:25.284Z,15.40
2017-10-19T08:42:29.577Z,15.40
2017-10-19T08:43:33.871Z,15.40
2017-10-19T08:44:39.312Z,15.60
2017-10-19T08:45:43.628Z,15.60
2017-10-19T08:46:48.029Z,15.60
2017-10-19T08:47:53.232Z,15.70
2017-10-19T08:48:58.431Z,15.80
2017-10-19T08:50:02.930Z,15.80
2017-10-19T08:51:07.318Z,15.80
2017-10-19T08:52:11.767Z,15.90
2017-10-19T08:53:16.194Z,16.00
2017-10-19T08:54:21.517Z,16.10
2017-10-19T08:55:26.990Z,16.10
2017-10-19T08:56:32.972Z,16.20
2017-10-19T08:57:37.443Z,16.20
2017-10-19T08:58:42.591Z,16.30
2017-10-19T08:59:48.495Z,16.30
2017-10-19T09:00:53.799Z,16.40
2017-10-19T09:01:59.539Z,16.40
2017-10-19T09:03:05.744Z,16.50
2017-10-19T09:04:11.104Z,16.50
2017-10-19T09:05:18.332Z,16.70
2017-10-19T09:06:24.598Z,16.70
2017-10-19T09:07:29.012Z,16.70
2017-10-19T09:08:34.609Z,16.90
2017-10-19T09:09:39.471Z,16.90
2017-10-19T09:10:45.842Z,17.00
2017-10-19T09:11:51.237Z,17.10
2017-10-19T09:12:56.620Z,17.30
2017-10-19T09:14:01.714Z,17.30
2017-10-19T09:15:06.104Z,17.40
2017-10-19T09:16:11.312Z,17.60
2017-10-19T09:17:17.065Z,17.60
2017-10-19T09:18:21.399Z,17.70
2017-10-19T09:19:26.628Z,17.60
2017-10-19T09:20:31.282Z,17.60
2017-10-19T09:21:35.698Z,17.70
2017-10-19T09:22:40.069Z,17.80
2017-10-19T09:23:45.468Z,17.90
2017-10-19T09:24:50.634Z,18.00
2017-10-19T09:25:55.017Z,18.00
2017-10-19T09:27:00.369Z,18.20
2017-10-19T09:28:05.532Z,18.30
2017-10-19T09:29:09.825Z,18.30
2017-10-19T09:30:14.644Z,18.50
2017-10-19T09:31:18.931Z,18.60
2017-10-19T09:32:23.353Z,18.60
2017-10-19T09:33:27.673Z,18.70
2017-10-19T09:34:32.147Z,18.70
2017-10-19T09:35:36.488Z,18.80
2017-10-19T09:36:40.820Z,18.80
2017-10-19T09:37:45.244Z,19.00
2017-10-19T09:38:49.538Z,19.00
2017-10-19T09:39:53.912Z,19.10
2017-10-19T09:40:58.249Z,19.20
2017-10-19T09:42:02.732Z,19.30
2017-10-19T09:43:07.050Z,19.40
2017-10-19T09:44:11.351Z,19.50
2017-10-19T09:45:15.716Z,19.50
2017-10-19T09:46:20.811Z,19.60
2017-10-19T09:47:25.162Z,19.60
2017-10-19T09:48:29.565Z,19.80
2017-10-19T09:49:34.050Z,19.90
2017-10-19T09:50:38.347Z,20.00
2017-10-19T09:51:42.578Z,20.10
2017-10-19T09:52:47.667Z,20.30
2017-10-19T09:53:51.995Z,20.20
2017-10-19T09:54:56.341Z,20.30
2017-10-19T09:56:00.643Z,20.30
2017-10-19T09:57:04.949Z,20.40
2017-10-19T09:58:09.998Z,20.50
2017-10-19T09:59:14.688Z,20.40
2017-10-19T10:00:19.043Z,20.50
2017-10-19T10:01:23.301Z,20.60
2017-10-19T10:02:28.526Z,20.80
2017-10-19T10:03:33.593Z,20.80
2017-10-19T10:04:37.960Z,20.80
2017-10-19T10:05:43.275Z,21.00
2017-10-19T10:06:48.476Z,21.10
2017-10-19T10:07:52.826Z,21.00
2017-10-19T10:08:57.953Z,21.20
2017-10-19T10:10:03.137Z,21.20
2017-10-19T10:11:07.586Z,21.20
2017-10-19T10:12:12.682Z,21.40
2017-10-19T10:13:17.540Z,21.40
2017-10-19T10:14:22.644Z,21.60
2017-10-19T10:15:29.037Z,21.60
2017-10-19T10:16:35.877Z,21.70
2017-10-19T10:17:42.760Z,21.80
2017-10-19T10:18:50.305Z,21.70
2017-10-19T10:19:57.907Z,21.70
2017-10-19T10:21:03.667Z,21.70
2017-10-19T10:22:09.511Z,21.70
2017-10-19T10:23:14.788Z,21.70
2017-10-19T10:24:19.312Z,21.70
2017-10-19T10:25:23.770Z,21.70
2017-10-19T10:26:28.324Z,21.80
2017-10-19T10:27:32.898Z,21.90
2017-10-19T10:28:37.315Z,22.00
2017-10-19T10:29:41.699Z,21.90
2017-10-19T10:30:46.960Z,21.90
2017-10-19T10:31:51.960Z,21.90
2017-10-19T10:32:57.939Z,22.00
2017-10-19T10:34:02.714Z,22.00
2017-10-19T10:35:07.947Z,22.00
2017-10-19T10:36:12.316Z,22.10
2017-10-19T10:37:16.648Z,22.10
2017-10-19T10:38:21.751Z,22.10
2017-10-19T10:39:26.178Z,22.10
2017-10-19T10:40:30.498Z,22.00
2017-10-19T10:41:35.637Z,22.20
2017-10-19T10:42:40.747Z,22.30
2017-10-19T10:43:45.951Z,22.40
2017-10-19T10:44:51.099Z,22.50
2017-10-19T10:45:56.684Z,22.60
2017-10-19T10:47:01.049Z,22.60
2017-10-19T10:48:05.438Z,22.70
2017-10-19T10:49:09.991Z,22.80
2017-10-19T10:50:15.330Z,22.90
2017-10-19T10:51:19.827Z,22.90
2017-10-19T10:52:25.102Z,23.10
2017-10-19T10:53:29.478Z,23.10
2017-10-19T10:54:34.030Z,23.10
2017-10-19T10:55:44.285Z,23.10
2017-10-19T10:56:48.660Z,23.00
2017-10-19T10:57:53.001Z,23.10
2017-10-19T10:58:57.288Z,23.20
2017-10-19T11:00:01.848Z,23.20
2017-10-19T11:01:06.461Z,23.30
2017-10-19T11:02:11.847Z,23.30
2017-10-19T11:03:16.214Z,23.40
2017-10-19T11:04:21.306Z,23.60
2017-10-19T11:05:25.692Z,23.60
2017-10-19T11:06:30.368Z,23.60
2017-10-19T11:07:35.503Z,23.60
2017-10-19T11:08:39.862Z,23.50
2017-10-19T11:09:44.528Z,23.50
2017-10-19T11:10:48.936Z,23.40
2017-10-19T11:11:53.242Z,23.50
2017-10-19T11:12:57.496Z,23.50
2017-10-19T11:14:01.748Z,23.50
2017-10-19T11:15:06.849Z,23.30
2017-10-19T11:16:11.957Z,23.30
2017-10-19T11:17:16.234Z,23.30
2017-10-19T11:18:22.500Z,23.40
2017-10-19T11:19:26.762Z,23.40
2017-10-19T11:21:07.731Z,23.60
2017-10-19T11:22:12.841Z,23.70
2017-10-19T11:23:17.902Z,23.80
2017-10-19T11:24:22.184Z,23.70
2017-10-19T11:25:27.217Z,23.80
2017-10-19T11:26:32.757Z,23.70
2017-10-19T11:27:37.011Z,23.70
2017-10-19T11:28:41.370Z,23.60
2017-10-19T11:29:45.616Z,23.60
2017-10-19T11:30:49.925Z,23.50
2017-10-19T11:31:54.342Z,23.50
2017-10-19T11:32:58.719Z,23.60
2017-10-19T11:34:03.049Z,23.60
2017-10-19T11:35:07.764Z,23.60
2017-10-19T11:36:12.063Z,23.60
2017-10-19T11:37:16.342Z,23.50
2017-10-19T11:38:21.760Z,23.50
2017-10-19T11:39:26.839Z,23.60
2017-10-19T11:40:31.141Z,23.60
2017-10-19T11:41:35.630Z,23.60
2017-10-19T11:42:40.036Z,23.50
2017-10-19T11:43:44.711Z,23.40
2017-10-19T11:44:49.842Z,23.40
2017-10-19T11:45:54.951Z,23.40
2017-10-19T11:46:59.313Z,23.40
2017-10-19T11:48:03.710Z,23.50
2017-10-19T11:49:08.768Z,23.40
2017-10-19T11:50:13.094Z,23.40
2017-10-19T11:51:17.568Z,23.30
2017-10-19T11:52:21.940Z,23.20
2017-10-19T11:53:27.270Z,23.30
2017-10-19T11:54:32.437Z,23.30
2017-10-19T11:55:36.783Z,23.20
2017-10-19T11:56:41.318Z,23.20
2017-10-19T11:57:46.403Z,23.10
2017-10-19T11:58:50.703Z,23.10
2017-10-19T11:59:55.090Z,23.10
2017-10-19T12:00:59.488Z,22.90
2017-10-19T12:02:04.216Z,22.90
2017-10-19T12:03:08.690Z,22.90
2017-10-19T12:04:13.066Z,22.80
2017-10-19T12:05:17.506Z,22.80
2017-10-19T12:06:21.951Z,22.90
2017-10-19T12:07:26.325Z,22.80
2017-10-19T12:08:30.726Z,22.80
2017-10-19T12:09:35.426Z,22.80
2017-10-19T12:10:39.951Z,22.70
2017-10-19T12:11:44.443Z,22.70
2017-10-19T12:12:48.997Z,22.60
2017-10-19T12:13:54.183Z,22.60
2017-10-19T12:14:58.628Z,22.60
2017-10-19T12:16:03.780Z,22.50
2017-10-19T12:17:08.864Z,22.40
2017-10-19T12:18:13.406Z,22.40
2017-10-19T12:19:18.896Z,22.40
2017-10-19T12:20:23.379Z,22.40
2017-10-19T12:21:28.083Z,22.40
2017-10-19T12:22:32.258Z,22.40
2017-10-19T12:23:36.770Z,22.40
2017-10-19T12:24:42.114Z,22.30
2017-10-19T12:26:25.580Z,22.30
2017-10-19T12:27:29.954Z,22.30
2017-10-19T12:28:35.144Z,22.20
2017-10-19T12:29:39.399Z,22.20
2017-10-19T12:30:44.074Z,22.10
2017-10-19T12:31:48.618Z,22.10
2017-10-19T12:32:53.784Z,22.00
2017-10-19T12:33:58.250Z,22.00
2017-10-19T12:35:02.611Z,22.00
2017-10-19T12:36:07.215Z,21.90
2017-10-19T12:37:13.416Z,21.90
2017-10-19T12:38:18.491Z,21.80
2017-10-19T12:39:23.475Z,21.80
2017-10-19T12:40:28.821Z,21.90
2017-10-19T12:41:33.122Z,21.80
2017-10-19T12:42:38.434Z,21.80
2017-10-19T12:43:44.913Z,21.70
2017-10-19T12:44:49.491Z,21.70
2017-10-19T12:45:53.804Z,21.70
2017-10-19T12:46:58.469Z,21.60
2017-10-19T12:48:02.778Z,21.60
2017-10-19T12:49:07.229Z,21.60
2017-10-19T12:50:11.585Z,21.60
2017-10-19T12:51:16.099Z,21.60
2017-10-19T12:52:20.788Z,21.50
2017-10-19T12:53:25.486Z,21.50
2017-10-19T12:54:30.530Z,21.50
2017-10-19T12:55:36.691Z,21.40
2017-10-19T12:56:41.897Z,21.50
2017-10-19T12:57:46.400Z,21.40
2017-10-19T12:58:50.930Z,21.50
2017-10-19T12:59:56.218Z,21.50
2017-10-19T13:01:00.792Z,21.50
2017-10-19T13:02:05.094Z,21.50
2017-10-19T13:03:10.371Z,21.50
2017-10-19T13:04:14.910Z,21.50
2017-10-19T13:05:20.121Z,21.60
2017-10-19T13:06:24.460Z,21.50
2017-10-19T13:07:29.571Z,21.60
2017-10-19T13:08:34.091Z,21.60
2017-10-19T13:09:38.461Z,21.70
2017-10-19T13:10:42.844Z,21.70
2017-10-19T13:11:47.252Z,21.70
2017-10-19T13:12:51.582Z,21.70
2017-10-19T13:13:55.912Z,21.70
2017-10-19T13:15:00.480Z,21.70
2017-10-19T13:16:05.213Z,21.70
2017-10-19T13:17:09.696Z,21.80
2017-10-19T13:18:14.099Z,21.80
2017-10-19T13:19:19.149Z,21.70
2017-10-19T13:20:23.889Z,21.70
2017-10-19T13:21:28.256Z,21.70
2017-10-19T13:22:33.261Z,21.70
2017-10-19T13:23:37.683Z,21.70
2017-10-19T13:24:42.756Z,21.70
2017-10-19T13:25:47.121Z,21.70
2017-10-19T13:26:52.323Z,21.70
2017-10-19T13:27:57.355Z,21.70
2017-10-19T13:29:02.661Z,21.70
2017-10-19T13:30:07.196Z,21.70
2017-10-19T13:31:12.620Z,21.60
2017-10-19T13:32:17.138Z,21.60
2017-10-19T13:33:22.949Z,21.60
2017-10-19T13:34:27.323Z,21.60
2017-10-19T13:35:31.867Z,21.60
2017-10-19T13:36:36.746Z,21.70
2017-10-19T13:37:41.874Z,21.70
2017-10-19T13:38:47.163Z,21.70
2017-10-19T13:39:51.566Z,21.70
2017-10-19T13:40:55.914Z,21.70
2017-10-19T13:42:02.385Z,21.60
2017-10-19T13:43:06.723Z,21.60
2017-10-19T13:44:11.475Z,21.60
2017-10-19T13:45:17.096Z,21.70
2017-10-19T13:46:21.456Z,21.60
2017-10-19T13:47:27.138Z,21.70
2017-10-19T13:48:31.523Z,21.70
2017-10-19T13:49:36.135Z,21.70
2017-10-19T13:50:40.480Z,21.70
2017-10-19T13:51:45.188Z,21.70
2017-10-19T13:52:49.555Z,21.70
2017-10-19T13:53:54.250Z,21.70
2017-10-19T13:54:59.571Z,21.80
2017-10-19T13:56:04.356Z,21.70
2017-10-19T13:57:09.066Z,21.80
2017-10-19T13:58:13.450Z,21.80
2017-10-19T13:59:18.091Z,21.80